Strona główna
METAR-TAF:

METAR-TAF

Lotnisko :

Cranfield, Anglia

Szerokość geograficzna: 52-04N, Długość geograficzna: 000-37W, wysokość: 111 m

Aktualna obserwacja pogody

Raport powstał 7 godziny i 42 minut temu, godzina 17:50 UTC
Wiatr 8 kt od południowy zachód
Temperatura 2°C
Wilgotność 93%
Ciśnienie 1045 hPa
Widzialność 10 km lub więcej
Brak chmur poniżej 1500 m i brak chmur cumulonimbus

METAR: EGTC 201750Z 23008KT CAVOK 02/01 Q1045

czas: 01:32 (01:32 UTC)

Prognoza

Raport powstał 11 godziny i 39 minut temu, godzina 13:53 UTC
Prognoza ważna od 20 godzina 15 UTC do 20 godzina 18 UTC
Wiatr 6 kt od zachodnio-południowy zachód
Widzialność 10 km lub więcej
Brak chmur poniżej 1500 m i brak chmur cumulonimbus

TAF: EGTC 201353Z 2015/2018 25006KT CAVOK

Obserwacja i prognoza pogody dla ponad 4000 lotnisk (raport METAR i TAF).

Dostępne stacje oznaczono żółtymi i czerwonymi punktami na mapie.

Najedź kursorem aby zobaczyć nazwę stacji.

Kliknij aby zobaczyć obserwacje i prognozy pogody.

Aby zmienić mapę: kliknij na zielony przycisk z czarnym krzyżykiem, aby powiększyć; na zielony przycisk z myślnikiem, aby pomniejszyć; na zielone strzałki, aby przejść do map sąsiednich.


METAR-TAF: